Latest Coastal Weather Observations for Alva Beach

IDQ60701

Issued at 2:51 am EST Friday 21 July 2017 (issued every 10 minutes, with the page automatically refreshed every 10 minutes)

About coastal observations | Map of coastal stations | Coastal observations for QLD | Marine services | Other Formats
Station Details ID: 033295 Name: ALVA BEACH Lat: -19.46 Lon: 147.48 Height: 7.5 m
Data from the previous 72 hours. | See also: Recent months at Alva Beach
Date/Time
EST
Temp
°C
Wind Pressure Rain since
9am
mm
Weather Cloud Vis
km
Sea
Height
m
Swell
Dir  Spd
kts
Gust
kts
hPa Trend Height
m
Period
s
Dir
21/02:30am 13.6 SSE 5 7 1016.9 - 0.0 - - - - - - -
21/02:00am 13.9 SSE 5 7 1016.9 - 0.0 - - - - - - -
21/01:30am 13.9 SSE 5 7 1017.1 - 0.0 - - - - - - -
21/01:00am 14.1 SSE 5 7 1017.4 - 0.0 - - - - - - -
21/12:30am 14.4 SSE 5 7 1017.4 - 0.0 - - - - - - -
21/12:00am 15.6 SE 5 6 1017.5 - 0.0 - - - - - - -
 
Date/Time
EST
Temp
°C
Wind Pressure Rain since
9am
mm
Weather Cloud Vis
km
Sea
Height
m
Swell
Dir  Spd
kts
Gust
kts
hPa Trend Height
m
Period
s
Dir
20/11:30pm 20.0 E 7 12 1017.6 - 0.0 - - - - - - -
20/11:00pm 20.4 E 8 10 1017.9 - 0.0 - - - - - - -
20/10:30pm 20.6 E 8 12 1018.1 - 0.0 - - - - - - -
20/10:00pm 20.4 E 8 11 1018.0 - 0.0 - - - - - - -
20/09:30pm 20.7 E 7 11 1017.9 - 0.0 - - - - - - -
20/09:00pm 20.8 E 9 14 1017.8 - 0.0 - - - - - - -
20/08:30pm 20.8 E 9 13 1017.5 - 0.0 - - - - - - -
20/08:00pm 20.8 E 9 13 1017.1 - 0.0 - - - - - - -
20/07:30pm 20.8 E 9 13 1016.7 - 0.0 - - - - - - -
20/07:00pm 20.6 E 8 12 1016.4 - 0.0 - - - - - - -
20/06:30pm 20.7 ENE 10 13 1016.0 - 0.0 - - - - - - -
20/06:00pm 20.6 E 8 11 1015.9 - 0.0 - - - - - - -
20/05:30pm 20.8 E 11 14 1015.8 - 0.0 - - - - - - -
20/05:00pm 20.9 ENE 10 14 1015.5 - 0.0 - - - - - - -
20/04:30pm 21.3 ENE 12 15 1015.5 - 0.0 - - - - - - -
20/04:00pm 21.5 E 11 16 1015.5 - 0.0 - - - - - - -
20/03:30pm 21.4 E 11 16 1015.5 - 0.0 - - - - - - -
20/03:00pm 21.7 E 10 14 1015.7 - 0.0 - - - - - - -
20/02:30pm 22.0 E 8 14 1016.1 - 0.0 - - - - - - -
20/02:00pm 22.7 E 9 14 1016.5 - 0.0 - - - - - - -
20/01:30pm 22.5 ESE 8 13 1016.8 - 0.0 - - - - - - -
20/01:00pm 22.6 E 9 13 1017.0 - 0.0 - - - - - - -
20/12:30pm 23.1 ESE 9 13 1017.6 - 0.0 - - - - - - -
20/12:00pm 22.4 ESE 9 13 1018.0 - 0.0 - - - - - - -
20/11:30am 22.0 SE 7 14 1018.3 - 0.0 - - - - - - -
20/11:00am 21.4 ESE 7 10 1018.6 - 0.0 - - - - - - -
20/10:30am 21.5 SE 7 12 1018.7 - 0.0 - - - - - - -
20/10:00am 20.4 S 6 11 1018.7 - 0.0 - - - - - - -
20/09:30am 19.0 S 7 11 1018.7 - 0.0 - - - - - - -
20/09:00am 17.3 SSW 7 10 1018.5 - 0.2 - - - - - - -
20/08:30am 15.5 SSW 5 8 1018.5 - 0.2 - - - - - - -
20/08:00am 13.9 SSW 5 8 1018.2 - 0.2 - - - - - - -
20/07:30am 11.3 SSW 5 7 1017.8 - 0.2 - - - - - - -
20/07:00am 10.1 SSW 6 8 1017.4 - 0.2 - - - - - - -
20/06:30am 9.9 SSW 5 7 1017.1 - 0.2 - - - - - - -
20/06:00am 10.9 SSW 6 10 1016.8 - 0.2 - - - - - - -
20/05:30am 10.8 SSW 7 9 1016.5 - 0.2 - - - - - - -
20/05:00am 11.4 SSW 7 10 1016.4 - 0.2 - - - - - - -
20/04:30am 11.2 SSW 7 9 1016.2 - 0.2 - - - - - - -
20/04:00am 11.5 SSW 6 9 1016.3 - 0.2 - - - - - - -
20/03:30am 12.0 SSW 6 8 1016.2 - 0.2 - - - - - - -
20/03:00am 13.1 SSW 6 9 1016.3 - 0.2 - - - - - - -
20/02:30am 13.9 S 6 8 1016.4 - 0.2 - - - - - - -
20/02:00am 14.3 S 6 8 1016.5 - 0.2 - - - - - - -
20/01:30am 14.7 SSW 6 9 1016.7 - 0.2 - - - - - - -
20/01:00am 15.5 SSW 7 11 1016.7 - 0.2 - - - - - - -
20/12:30am 14.7 SSW 6 7 1016.9 - 0.2 - - - - - - -
20/12:00am 15.1 SSW 6 9 1017.0 - 0.2 - - - - - - -
 
Date/Time
EST
Temp
°C
Wind Pressure Rain since
9am
mm
Weather Cloud Vis
km
Sea
Height
m
Swell
Dir  Spd
kts
Gust
kts
hPa Trend Height
m
Period
s
Dir
19/11:30pm 15.3 SSW 5 7 1017.0 - 0.2 - - - - - - -
19/11:00pm 16.1 SSW 5 7 1017.1 - 0.2 - - - - - - -
19/10:30pm 16.2 SSW 5 7 1017.1 - 0.2 - - - - - - -
19/10:00pm 17.0 SW 5 8 1016.8 - 0.2 - - - - - - -
19/09:30pm 17.2 NNW 5 6 1016.6 - 0.2 - - - - - - -
19/09:00pm 17.6 NNW 5 6 1016.3 - 0.2 - - - - - - -
19/08:30pm 18.2 N 5 6 1016.0 - 0.2 - - - - - - -
19/08:00pm 19.0 N 5 6 1015.7 - 0.2 - - - - - - -
19/07:30pm 19.3 N 4 5 1015.4 - 0.2 - - - - - - -
19/07:00pm 19.8 N 3 4 1014.9 - 0.2 - - - - - - -
19/06:30pm 21.0 N 1 3 1014.4 - 0.2 - - - - - - -
19/06:00pm 22.6 N 3 6 1014.2 - 0.2 - - - - - - -
19/05:30pm 22.9 N 5 8 1013.8 - 0.2 - - - - - - -
19/05:00pm 23.2 N 6 9 1013.5 - 0.2 - - - - - - -
19/04:30pm 24.0 N 7 11 1013.3 - 0.2 - - - - - - -
19/04:00pm 24.3 N 6 8 1013.0 - 0.2 - - - - - - -
19/03:30pm 24.2 N 8 11 1012.8 - 0.2 - - - - - - -
19/03:00pm 24.4 NNE 10 12 1012.8 - 0.2 - - - - - - -
19/02:30pm 24.5 NNE 10 13 1012.8 - 0.2 - - - - - - -
19/02:00pm 24.1 NNE 10 11 1013.1 - 0.2 - - - - - - -
19/01:30pm 24.1 NNE 10 11 1013.6 - 0.2 - - - - - - -
19/01:00pm 24.2 NNE 9 11 1014.2 - 0.2 - - - - - - -
19/12:30pm 24.0 NNE 9 11 1014.8 - 0.2 - - - - - - -
19/12:00pm 24.0 NNE 8 9 1015.4 - 0.2 - - - - - - -
19/11:30am 23.9 NE 6 7 1015.9 - 0.2 - - - - - - -
19/11:00am 24.7 NE 6 8 1016.1 - 0.2 - - - - - - -
19/10:30am 24.1 SW 3 6 1016.5 - 0.0 - - - - - - -
19/10:00am 23.1 SW 4 6 1017.0 - 0.0 - - - - - - -
19/09:30am 22.1 SSW 5 8 1017.2 - 0.0 - - - - - - -
19/09:00am 20.5 S 4 6 1017.4 - 0.0 - - - - - - -
19/08:30am 19.2 S 4 6 1017.3 - 0.0 - - - - - - -
19/08:00am 17.9 S 5 7 1017.1 - 0.0 - - - - - - -
19/07:30am 16.7 S 5 6 1017.0 - 0.0 - - - - - - -
19/07:00am 16.4 S 5 6 1016.8 - 0.0 - - - - - - -
19/06:30am 16.5 S 5 6 1016.4 - 0.0 - - - - - - -
19/06:00am 16.5 S 4 6 1016.3 - 0.0 - - - - - - -
19/05:30am 16.7 S 4 5 1016.2 - 0.0 - - - - - - -
19/05:00am 16.7 S 5 7 1016.1 - 0.0 - - - - - - -
19/04:30am 16.9 SE 5 6 1016.2 - 0.0 - - - - - - -
19/04:00am 16.7 ENE 4 5 1016.3 - 0.0 - - - - - - -
19/03:30am 17.1 ENE 4 4 1016.3 - 0.0 - - - - - - -
19/03:00am 17.2 ENE 4 5 1016.3 - 0.0 - - - - - - -
19/02:30am 17.3 ENE 4 5 1016.5 - 0.0 - - - - - - -
19/02:00am 17.3 ENE 4 5 1016.6 - 0.0 - - - - - - -
19/01:30am 17.7 ENE 3 5 1016.9 - 0.0 - - - - - - -
19/01:00am 17.7 ENE 4 5 1017.1 - 0.0 - - - - - - -
19/12:30am 17.9 ENE 3 5 1017.4 - 0.0 - - - - - - -
19/12:00am 18.2 ENE 4 5 1017.8 - 0.0 - - - - - - -
 
Date/Time
EST
Temp
°C
Wind Pressure Rain since
9am
mm
Weather Cloud Vis
km
Sea
Height
m
Swell
Dir  Spd
kts
Gust
kts
hPa Trend Height
m
Period
s
Dir
18/11:30pm 17.8 ENE 2 5 1017.7 - 0.0 - - - - - - -
18/11:00pm 21.4 ENE 6 7 1017.6 - 0.0 - - - - - - -
18/10:30pm 21.8 ENE 6 8 1017.6 - 0.0 - - - - - - -
18/10:00pm 21.1 ENE 6 7 1017.6 - 0.0 - - - - - - -
18/09:30pm 21.3 ENE 6 7 1017.7 - 0.0 - - - - - - -
18/09:00pm 22.2 ENE 6 8 1017.5 - 0.0 - - - - - - -
18/08:30pm 22.3 ENE 7 8 1017.4 - 0.0 - - - - - - -
18/08:00pm 22.4 ENE 8 9 1017.2 - 0.0 - - - - - - -
18/07:30pm 22.5 NE 7 9 1017.0 - 0.0 - - - - - - -
18/07:00pm 22.4 NE 8 10 1016.8 - 0.0 - - - - - - -
18/06:30pm 22.4 NE 9 11 1016.5 - 0.0 - - - - - - -
18/06:00pm 22.4 ENE 8 10 1016.2 - 0.0 - - - - - - -
18/05:30pm 22.6 ENE 7 9 1016.0 - 0.0 - - - - - - -
18/05:00pm 23.0 NE 7 9 1015.8 - 0.0 - - - - - - -
18/04:30pm 23.6 ENE 7 8 1015.8 - 0.0 - - - - - - -
18/04:00pm 23.9 ENE 7 10 1015.7 - 0.0 - - - - - - -
18/03:30pm 24.3 ENE 8 9 1015.7 - 0.0 - - - - - - -
18/03:00pm 24.1 ENE 7 9 1016.1 - 0.0 - - - - - - -
18/02:30pm 24.5 ENE 7 10 1016.2 - 0.0 - - - - - - -
18/02:00pm 24.1 E 7 9 1016.4 - 0.0 - - - - - - -
18/01:30pm 24.3 E 7 11 1016.8 - 0.0 - - - - - - -
18/01:00pm 24.6 ESE 7 10 1017.2 - 0.0 - - - - - - -
18/12:30pm 25.3 E 7 10 1017.8 - 0.0 - - - - - - -
18/12:00pm 25.1 ESE 7 11 1018.3 - 0.0 - - - - - - -
18/11:30am 25.2 ESE 7 12 1018.8 - 0.0 - - - - - - -
18/11:00am 23.8 ESE 7 11 1019.0 - 0.0 - - - - - - -
18/10:30am 24.5 ESE 5 9 1019.0 - 0.0 - - - - - - -
18/10:00am 23.7 S 4 6 1019.3 - 0.0 - - - - - - -
18/09:30am 21.9 S 6 9 1019.5 - 0.0 - - - - - - -
18/09:00am 20.6 S 5 8 1019.8 - 0.0 - - - - - - -
18/08:30am 18.6 SSW 6 10 1019.7 - 0.0 - - - - - - -
18/08:00am 17.0 SSW 4 7 1019.5 - 0.0 - - - - - - -
18/07:30am 15.5 SSW 5 7 1019.2 - 0.0 - - - - - - -
18/07:00am 14.7 SSW 5 6 1019.0 - 0.0 - - - - - - -
18/06:30am 14.8 SSW 5 7 1018.5 - 0.0 - - - - - - -
18/06:00am 15.1 SSW 5 7 1018.3 - 0.0 - - - - - - -
18/05:30am 15.2 SSW 6 8 1018.0 - 0.0 - - - - - - -
18/05:00am 15.2 SSW 5 7 1017.8 - 0.0 - - - - - - -
18/04:30am 15.3 SSW 5 7 1017.8 - 0.0 - - - - - - -
18/04:00am 15.7 SSW 5 8 1017.9 - 0.0 - - - - - - -
18/03:30am 15.8 SSW 5 7 1018.1 - 0.0 - - - - - - -
18/03:00am 16.3 SSW 5 7 1018.2 - 0.0 - - - - - - -

Other Formats:

Comma delimited format used in spreadsheet applications
http://www.bom.gov.au/fwo/IDQ60701/IDQ60701.95296.axf

JavaScript Object Notation format (JSON) in row-major order
http://www.bom.gov.au/fwo/IDQ60701/IDQ60701.95296.json